createdAt,value
2023-04-05T00:29:47.632Z,4.97
2023-04-05T00:30:29.527Z,6.60
2023-04-05T00:31:12.123Z,4.93
2023-04-05T00:31:53.728Z,4.50
2023-04-05T00:32:36.292Z,4.97
2023-04-05T00:33:17.872Z,3.72
2023-04-05T00:33:59.521Z,3.50
2023-04-05T00:34:41.107Z,5.03
2023-04-05T00:35:22.640Z,3.50
2023-04-05T00:36:11.292Z,3.60
2023-04-05T00:36:52.990Z,4.57
2023-04-05T00:37:34.545Z,5.68
2023-04-05T00:38:16.742Z,4.75
2023-04-05T00:38:58.425Z,3.53
2023-04-05T00:39:40.190Z,3.90
2023-04-05T00:40:21.903Z,3.97
2023-04-05T00:41:03.508Z,3.50
2023-04-05T00:41:46.947Z,4.10
2023-04-05T00:42:30.292Z,3.73
2023-04-05T00:43:11.900Z,3.80
2023-04-05T00:43:53.474Z,3.57
2023-04-05T00:44:35.993Z,3.17
2023-04-05T00:45:17.786Z,4.17
2023-04-05T00:46:00.243Z,3.10
2023-04-05T00:46:42.242Z,3.95
2023-04-05T00:47:24.731Z,3.53
2023-04-05T00:48:06.735Z,4.33
2023-04-05T00:48:48.945Z,5.70
2023-04-05T00:49:32.489Z,3.70
2023-04-05T00:50:15.921Z,3.63
2023-04-05T00:50:58.072Z,4.47
2023-04-05T00:51:40.356Z,3.67
2023-04-05T00:52:23.338Z,3.70
2023-04-05T00:53:05.374Z,4.40
2023-04-05T00:53:48.064Z,3.60
2023-04-05T00:54:30.660Z,4.40
2023-04-05T00:55:13.507Z,4.30
2023-04-05T00:55:55.596Z,3.47
2023-04-05T00:56:37.425Z,3.37
2023-04-05T00:57:19.149Z,3.13
2023-04-05T00:58:00.832Z,3.53
2023-04-05T00:58:42.561Z,3.20
2023-04-05T00:59:24.397Z,3.73
2023-04-05T01:00:11.026Z,4.07
2023-04-05T01:01:01.814Z,3.97
2023-04-05T01:01:43.748Z,4.00
2023-04-05T01:02:33.631Z,4.37
2023-04-05T01:03:16.930Z,3.90
2023-04-05T01:04:05.358Z,4.23
2023-04-05T01:04:51.740Z,4.23
2023-04-05T01:05:55.827Z,3.70
2023-04-05T01:06:50.326Z,3.70
2023-04-05T01:07:42.246Z,3.40
2023-04-05T01:08:52.154Z,4.33
2023-04-05T01:09:57.174Z,5.03
2023-04-05T01:10:44.244Z,5.73
2023-04-05T01:11:26.314Z,5.10
2023-04-05T01:12:12.312Z,4.40
2023-04-05T01:12:54.503Z,4.60
2023-04-05T01:13:36.533Z,5.17
2023-04-05T01:14:18.559Z,5.87
2023-04-05T01:15:01.251Z,4.57
2023-04-05T01:15:43.048Z,4.83
2023-04-05T01:16:24.757Z,3.97
2023-04-05T01:17:09.605Z,3.60
2023-04-05T01:17:54.163Z,4.20
2023-04-05T01:18:37.187Z,3.67
2023-04-05T01:19:19.685Z,4.20
2023-04-05T01:20:11.137Z,4.30
2023-04-05T01:21:03.139Z,3.77
2023-04-05T01:22:16.728Z,4.60
2023-04-05T01:23:49.215Z,4.03
2023-04-05T01:24:52.756Z,5.27
2023-04-05T01:25:52.870Z,3.97
2023-04-05T01:26:51.704Z,4.50
2023-04-05T01:28:12.221Z,5.03
2023-04-05T01:29:18.357Z,3.97
2023-04-05T01:30:17.544Z,4.10
2023-04-05T01:31:11.299Z,4.87
2023-04-05T01:32:14.536Z,4.13
2023-04-05T01:33:04.840Z,5.27
2023-04-05T01:33:58.762Z,8.17
2023-04-05T01:34:56.355Z,6.53
2023-04-05T01:36:12.640Z,6.70
2023-04-05T01:37:02.711Z,5.60
2023-04-05T01:37:49.981Z,4.67
2023-04-05T01:38:33.467Z,5.83
2023-04-05T01:39:18.947Z,6.00
2023-04-05T01:40:01.238Z,5.33
2023-04-05T01:40:43.555Z,4.43
2023-04-05T01:41:26.429Z,4.60
2023-04-05T01:42:08.551Z,4.60
2023-04-05T01:42:50.147Z,3.63
2023-04-05T01:43:31.725Z,4.33
2023-04-05T01:44:13.378Z,3.47
2023-04-05T01:44:56.582Z,4.13
2023-04-05T01:45:38.235Z,4.07
2023-04-05T01:46:19.911Z,3.50
2023-04-05T01:47:01.761Z,3.73
2023-04-05T01:47:43.482Z,3.53
2023-04-05T01:48:25.575Z,3.50
2023-04-05T01:49:08.020Z,4.10
2023-04-05T01:49:49.787Z,3.50
2023-04-05T01:50:31.526Z,3.50
2023-04-05T01:51:13.242Z,3.77
2023-04-05T01:51:54.882Z,5.83
2023-04-05T01:52:36.684Z,3.67
2023-04-05T01:53:18.773Z,5.70
2023-04-05T01:54:00.529Z,3.27
2023-04-05T01:54:42.147Z,3.53
2023-04-05T01:55:24.194Z,4.30
2023-04-05T01:56:05.957Z,3.50
2023-04-05T01:56:47.512Z,3.90
2023-04-05T01:57:29.244Z,3.37
2023-04-05T01:58:10.887Z,4.00
2023-04-05T01:58:52.611Z,4.17
2023-04-05T01:59:34.282Z,5.43
2023-04-05T02:00:16.099Z,4.30
2023-04-05T02:00:58.593Z,4.00
2023-04-05T02:01:40.259Z,7.97
2023-04-05T02:02:21.796Z,4.73
2023-04-05T02:03:03.626Z,5.37
2023-04-05T02:03:45.453Z,4.60
2023-04-05T02:04:27.168Z,4.20
2023-04-05T02:05:09.102Z,3.90
2023-04-05T02:05:51.551Z,3.80
2023-04-05T02:06:33.451Z,4.30
2023-04-05T02:07:16.698Z,4.57
2023-04-05T02:07:58.301Z,4.23
2023-04-05T02:08:39.965Z,5.07
2023-04-05T02:09:21.618Z,4.80
2023-04-05T02:10:03.424Z,5.40
2023-04-05T02:10:45.800Z,4.40
2023-04-05T02:11:27.390Z,5.73
2023-04-05T02:12:12.361Z,5.03
2023-04-05T02:12:53.972Z,4.53
2023-04-05T02:13:35.680Z,5.50
2023-04-05T02:14:17.453Z,4.77
2023-04-05T02:14:59.042Z,4.83
2023-04-05T02:15:40.968Z,3.90
2023-04-05T02:16:23.274Z,4.30
2023-04-05T02:17:05.044Z,4.13
2023-04-05T02:17:46.771Z,4.70
2023-04-05T02:18:31.981Z,4.43
2023-04-05T02:19:15.923Z,4.13
2023-04-05T02:20:02.122Z,3.67
2023-04-05T02:20:44.620Z,3.17
2023-04-05T02:21:26.799Z,5.43
2023-04-05T02:22:08.949Z,3.93
2023-04-05T02:22:51.732Z,3.83
2023-04-05T02:23:34.368Z,3.47
2023-04-05T02:24:16.056Z,2.90
2023-04-05T02:24:57.776Z,4.47
2023-04-05T02:25:39.404Z,4.33
2023-04-05T02:26:21.434Z,4.47
2023-04-05T02:27:03.185Z,3.77
2023-04-05T02:27:44.923Z,4.10
2023-04-05T02:28:27.224Z,3.90
2023-04-05T02:29:08.900Z,4.23
2023-04-05T02:29:51.668Z,3.50
2023-04-05T02:30:33.395Z,3.23
2023-04-05T02:31:15.416Z,4.63
2023-04-05T02:31:57.835Z,3.83
2023-04-05T02:32:42.435Z,3.40
2023-04-05T02:33:24.040Z,4.40
2023-04-05T02:34:09.082Z,4.10
2023-04-05T02:34:52.342Z,3.73
2023-04-05T02:35:34.081Z,3.70
2023-04-05T02:36:16.252Z,3.50
2023-04-05T02:36:58.861Z,4.17
2023-04-05T02:37:41.652Z,3.93
2023-04-05T02:38:23.379Z,4.47
2023-04-05T02:39:05.077Z,3.97
2023-04-05T02:39:47.134Z,3.70
2023-04-05T02:40:28.810Z,3.53
2023-04-05T02:41:14.384Z,3.20
2023-04-05T02:41:56.749Z,3.97
2023-04-05T02:42:38.427Z,3.10
2023-04-05T02:43:20.088Z,4.90
2023-04-05T02:44:02.094Z,3.33
2023-04-05T02:44:45.411Z,4.90
2023-04-05T02:45:29.656Z,3.90
2023-04-05T02:46:13.526Z,3.60
2023-04-05T02:46:57.036Z,3.67
2023-04-05T02:47:44.492Z,3.93
2023-04-05T02:48:26.196Z,3.47
2023-04-05T02:49:07.982Z,4.13
2023-04-05T02:49:51.282Z,4.67
2023-04-05T02:50:33.416Z,4.80
2023-04-05T02:51:15.045Z,4.10
2023-04-05T02:51:57.628Z,4.90
2023-04-05T02:52:39.395Z,4.43
2023-04-05T02:53:21.239Z,4.10
2023-04-05T02:54:09.367Z,4.03
2023-04-05T02:54:51.701Z,4.40
2023-04-05T02:55:41.955Z,4.67
2023-04-05T02:56:23.520Z,4.60
2023-04-05T02:57:05.323Z,4.07
2023-04-05T02:58:00.587Z,4.20
2023-04-05T02:59:02.580Z,3.63
2023-04-05T02:59:45.146Z,3.83
2023-04-05T03:00:27.996Z,5.63
2023-04-05T03:01:12.695Z,3.33
2023-04-05T03:01:54.638Z,3.53
2023-04-05T03:02:40.933Z,3.50
2023-04-05T03:03:23.315Z,3.50
2023-04-05T03:04:05.232Z,4.50
2023-04-05T03:04:48.155Z,3.27
2023-04-05T03:05:31.972Z,3.23
2023-04-05T03:06:14.387Z,3.57
2023-04-05T03:07:04.689Z,3.50
2023-04-05T03:07:51.874Z,4.53
2023-04-05T03:08:38.765Z,4.03
2023-04-05T03:09:22.427Z,5.03
2023-04-05T03:10:08.317Z,3.50
2023-04-05T03:10:52.540Z,3.60
2023-04-05T03:11:34.198Z,4.57
2023-04-05T03:12:15.984Z,3.83
2023-04-05T03:12:58.712Z,4.27
2023-04-05T03:13:42.568Z,3.43
2023-04-05T03:14:31.564Z,3.83
2023-04-05T03:15:14.260Z,5.83
2023-04-05T03:15:58.788Z,3.37
2023-04-05T03:16:42.809Z,3.50
2023-04-05T03:17:33.222Z,3.33
2023-04-05T03:18:17.648Z,3.33
2023-04-05T03:19:00.048Z,3.80
2023-04-05T03:19:42.568Z,4.77
2023-04-05T03:20:29.616Z,5.60
2023-04-05T03:21:18.064Z,3.60
2023-04-05T03:22:08.701Z,3.97
2023-04-05T03:22:52.507Z,3.30
2023-04-05T03:23:34.744Z,3.50
2023-04-05T03:24:16.992Z,3.63
2023-04-05T03:24:59.021Z,4.47
2023-04-05T03:25:41.650Z,5.67
2023-04-05T03:26:24.604Z,5.73
2023-04-05T03:27:08.082Z,3.93
2023-04-05T03:27:57.972Z,4.60
2023-04-05T03:28:45.747Z,3.57
2023-04-05T03:29:28.263Z,3.50
2023-04-05T03:30:10.561Z,3.73
2023-04-05T03:30:57.198Z,5.53
2023-04-05T03:31:39.457Z,3.40
2023-04-05T03:32:23.968Z,4.43
2023-04-05T03:33:13.195Z,3.90
2023-04-05T03:33:58.904Z,4.40
2023-04-05T03:34:44.160Z,3.60
2023-04-05T03:35:30.906Z,3.70
2023-04-05T03:36:16.472Z,3.50
2023-04-05T03:36:59.498Z,3.40
2023-04-05T03:37:50.892Z,3.40
2023-04-05T03:38:33.136Z,4.37
2023-04-05T03:39:25.949Z,3.90
2023-04-05T03:40:10.519Z,3.63
2023-04-05T03:40:52.141Z,3.53
2023-04-05T03:41:33.837Z,3.93
2023-04-05T03:42:16.400Z,3.90
2023-04-05T03:42:59.217Z,3.50
2023-04-05T03:43:41.493Z,4.10
2023-04-05T03:44:23.103Z,3.70
2023-04-05T03:45:06.133Z,3.40
2023-04-05T03:45:47.838Z,5.73
2023-04-05T03:46:29.589Z,3.90
2023-04-05T03:47:11.312Z,3.57
2023-04-05T03:47:55.027Z,3.67
2023-04-05T03:48:36.854Z,3.40
2023-04-05T03:49:19.843Z,3.70
2023-04-05T03:50:02.808Z,3.83
2023-04-05T03:50:47.087Z,3.73
2023-04-05T03:51:28.768Z,4.40
2023-04-05T03:52:10.433Z,3.87
2023-04-05T03:52:57.170Z,4.33
2023-04-05T03:53:39.035Z,4.20
2023-04-05T03:54:21.931Z,4.17
2023-04-05T03:55:06.816Z,6.00
2023-04-05T03:55:50.346Z,8.17
2023-04-05T03:56:35.330Z,5.27
2023-04-05T03:57:26.041Z,5.33
2023-04-05T03:58:10.589Z,6.23
2023-04-05T03:58:53.060Z,5.23
2023-04-05T03:59:39.549Z,9.77
2023-04-05T04:00:24.010Z,7.33
2023-04-05T04:01:44.811Z,5.90
2023-04-05T04:02:26.560Z,9.93
2023-04-05T04:03:09.753Z,6.73
2023-04-05T04:03:55.288Z,7.23
2023-04-05T04:04:38.518Z,7.33
2023-04-05T04:05:21.635Z,6.00
2023-04-05T04:06:08.076Z,4.70
2023-04-05T04:06:49.867Z,4.60
2023-04-05T04:07:35.819Z,5.30
2023-04-05T04:08:17.475Z,5.87
2023-04-05T04:08:59.133Z,4.87
2023-04-05T04:09:40.798Z,4.57
2023-04-05T04:10:24.790Z,6.37
2023-04-05T04:11:11.137Z,5.00
2023-04-05T04:11:54.625Z,5.33
2023-04-05T04:12:37.775Z,5.07
2023-04-05T04:13:19.429Z,5.97
2023-04-05T04:14:05.918Z,4.97
2023-04-05T04:15:07.029Z,6.17
2023-04-05T04:16:17.950Z,4.80
2023-04-05T04:16:59.541Z,6.47
2023-04-05T04:18:00.183Z,6.00
2023-04-05T04:19:11.378Z,5.27
2023-04-05T04:20:15.984Z,5.67
2023-04-05T04:21:07.269Z,4.80
2023-04-05T04:22:03.173Z,4.83
2023-04-05T04:23:10.094Z,5.77
2023-04-05T04:24:18.720Z,4.33
2023-04-05T04:25:10.272Z,4.70
2023-04-05T04:26:14.351Z,4.50
2023-04-05T04:27:16.972Z,4.87
2023-04-05T04:28:06.740Z,4.50
2023-04-05T04:29:07.270Z,4.90
2023-04-05T04:30:04.466Z,4.60
2023-04-05T04:30:48.972Z,6.80
2023-04-05T04:32:07.016Z,4.60
2023-04-05T04:33:09.168Z,8.77
2023-04-05T04:34:26.357Z,11.80
2023-04-05T04:35:38.938Z,5.90
2023-04-05T04:36:46.559Z,5.07
2023-04-05T04:37:54.903Z,4.57
2023-04-05T04:38:47.296Z,4.90
2023-04-05T04:39:52.610Z,4.63
2023-04-05T04:40:47.472Z,4.20
2023-04-05T04:42:10.695Z,5.33
2023-04-05T04:43:27.812Z,4.20
2023-04-05T04:44:39.207Z,3.70
2023-04-05T04:45:39.519Z,3.80
2023-04-05T04:46:42.717Z,4.73
2023-04-05T04:47:39.109Z,4.13
2023-04-05T04:48:33.080Z,5.57
2023-04-05T04:49:25.989Z,5.67
2023-04-05T04:50:09.629Z,5.40
2023-04-05T04:50:51.756Z,5.07
2023-04-05T04:51:34.680Z,4.77
2023-04-05T04:52:16.241Z,6.27
2023-04-05T04:53:01.901Z,4.73
2023-04-05T04:53:43.531Z,5.47
2023-04-05T04:54:25.238Z,4.93
2023-04-05T04:55:10.326Z,7.17
2023-04-05T04:55:52.019Z,6.57
2023-04-05T04:56:33.696Z,5.03
2023-04-05T04:57:15.830Z,5.37
2023-04-05T04:57:57.594Z,5.80
2023-04-05T04:58:39.393Z,4.03
2023-04-05T04:59:22.790Z,4.07
2023-04-05T05:00:12.011Z,4.60
2023-04-05T05:00:53.731Z,4.60
2023-04-05T05:01:35.476Z,4.53
2023-04-05T05:02:17.981Z,6.57
2023-04-05T05:02:59.796Z,5.23
2023-04-05T05:03:42.777Z,3.50
2023-04-05T05:04:24.520Z,5.00
2023-04-05T05:05:07.745Z,4.20
2023-04-05T05:05:51.319Z,4.03
2023-04-05T05:06:37.581Z,3.93
2023-04-05T05:07:20.181Z,4.13
2023-04-05T05:08:01.934Z,4.63
2023-04-05T05:08:43.486Z,4.80
2023-04-05T05:09:25.419Z,6.23
2023-04-05T05:10:15.990Z,6.13
2023-04-05T05:10:57.699Z,8.60
2023-04-05T05:11:39.340Z,8.60
2023-04-05T05:12:23.746Z,10.80
2023-04-05T05:13:06.052Z,6.83
2023-04-05T05:13:51.146Z,9.20
2023-04-05T05:14:37.684Z,7.33
2023-04-05T05:15:19.581Z,8.40
2023-04-05T05:16:02.359Z,8.33
2023-04-05T05:16:44.658Z,5.97
2023-04-05T05:17:26.518Z,6.90
2023-04-05T05:18:08.935Z,7.77
2023-04-05T05:18:54.325Z,5.60
2023-04-05T05:19:38.238Z,6.43
2023-04-05T05:20:20.154Z,5.90
2023-04-05T05:21:01.908Z,5.97
2023-04-05T05:21:43.598Z,5.43
2023-04-05T05:22:25.277Z,6.00
2023-04-05T05:23:06.981Z,6.87
2023-04-05T05:23:48.852Z,7.00
2023-04-05T05:24:30.482Z,6.10
2023-04-05T05:25:12.440Z,5.67
2023-04-05T05:26:00.335Z,6.00
2023-04-05T05:26:42.354Z,6.93
2023-04-05T05:27:24.068Z,6.23
2023-04-05T05:28:05.876Z,6.70
2023-04-05T05:28:49.196Z,6.20
2023-04-05T05:29:30.763Z,5.70
2023-04-05T05:30:13.196Z,5.53
2023-04-05T05:30:54.912Z,6.07
2023-04-05T05:31:36.777Z,7.67
2023-04-05T05:32:18.397Z,6.00
2023-04-05T05:33:00.153Z,6.00
2023-04-05T05:33:42.024Z,5.23
2023-04-05T05:34:24.273Z,5.83
2023-04-05T05:35:09.747Z,6.67
2023-04-05T05:35:51.606Z,5.93
2023-04-05T05:36:34.873Z,5.40
2023-04-05T05:37:17.151Z,5.60
2023-04-05T05:37:58.845Z,6.37
2023-04-05T05:38:43.006Z,5.50
2023-04-05T05:39:25.148Z,6.90
2023-04-05T05:40:07.168Z,7.50
2023-04-05T05:40:48.813Z,6.73
2023-04-05T05:41:30.610Z,7.67
2023-04-05T05:42:12.257Z,8.03
2023-04-05T05:42:53.950Z,7.80
2023-04-05T05:43:35.680Z,6.80
2023-04-05T05:44:17.332Z,6.80
2023-04-05T05:45:03.846Z,7.30
2023-04-05T05:45:45.626Z,6.50
2023-04-05T05:46:27.407Z,6.90
2023-04-05T05:47:09.076Z,7.43
2023-04-05T05:47:51.122Z,7.47
2023-04-05T05:48:33.195Z,6.90
2023-04-05T05:49:14.887Z,7.17
2023-04-05T05:49:56.502Z,6.67
2023-04-05T05:50:39.574Z,7.23
2023-04-05T05:51:21.736Z,8.33
2023-04-05T05:52:04.053Z,8.33
2023-04-05T05:52:45.871Z,7.37
2023-04-05T05:53:27.564Z,8.23
2023-04-05T05:54:09.157Z,8.00
2023-04-05T05:54:50.813Z,7.80
2023-04-05T05:55:32.617Z,7.13
2023-04-05T05:56:15.709Z,6.83
2023-04-05T05:56:57.514Z,6.60
2023-04-05T05:57:39.541Z,6.47
2023-04-05T05:58:21.209Z,7.33
2023-04-05T05:59:03.134Z,7.10
2023-04-05T05:59:44.823Z,6.73
2023-04-05T06:00:27.234Z,6.00
2023-04-05T06:01:11.898Z,6.63
2023-04-05T06:01:55.102Z,6.27
2023-04-05T06:02:36.874Z,6.77
2023-04-05T06:03:19.209Z,7.73
2023-04-05T06:04:01.323Z,7.13
2023-04-05T06:04:43.964Z,7.70
2023-04-05T06:05:26.371Z,8.40
2023-04-05T06:06:11.298Z,10.20
2023-04-05T06:06:54.522Z,11.03
2023-04-05T06:07:37.454Z,10.87
2023-04-05T06:08:18.996Z,11.13
2023-04-05T06:09:00.943Z,15.23
2023-04-05T06:09:42.589Z,13.23
2023-04-05T06:10:25.219Z,13.83
2023-04-05T06:11:06.917Z,11.77
2023-04-05T06:11:56.366Z,11.67
2023-04-05T06:12:38.249Z,13.17
2023-04-05T06:13:20.346Z,14.57
2023-04-05T06:14:02.154Z,12.33
2023-04-05T06:14:43.825Z,10.43
2023-04-05T06:15:25.601Z,10.77
2023-04-05T06:16:07.254Z,11.20
2023-04-05T06:16:48.967Z,11.03
2023-04-05T06:17:30.610Z,12.50
2023-04-05T06:18:12.255Z,11.20
2023-04-05T06:18:56.225Z,10.30
2023-04-05T06:19:38.015Z,11.93
2023-04-05T06:20:19.676Z,12.87
2023-04-05T06:21:01.409Z,11.00
2023-04-05T06:21:43.003Z,11.53
2023-04-05T06:22:24.981Z,12.20
2023-04-05T06:23:07.783Z,10.93
2023-04-05T06:23:49.617Z,11.27
2023-04-05T06:24:32.116Z,17.73
2023-04-05T06:25:14.053Z,13.47
2023-04-05T06:25:57.063Z,14.53
2023-04-05T06:26:38.673Z,12.60
2023-04-05T06:27:20.262Z,8.97
2023-04-05T06:28:05.332Z,8.90
2023-04-05T06:28:50.191Z,10.93
2023-04-05T06:29:31.824Z,8.50
2023-04-05T06:30:14.046Z,7.60
2023-04-05T06:30:59.395Z,8.47
2023-04-05T06:31:42.615Z,8.48
2023-04-05T06:32:24.378Z,9.07
2023-04-05T06:33:06.164Z,48.63
2023-04-05T06:33:47.820Z,31.03
2023-04-05T06:34:29.378Z,19.08
2023-04-05T06:35:11.244Z,12.55
2023-04-05T06:35:53.220Z,8.82
2023-04-05T06:36:34.994Z,8.67
2023-04-05T06:37:16.648Z,9.30
2023-04-05T06:37:58.351Z,7.38
2023-04-05T06:38:40.031Z,7.75
2023-04-05T06:39:21.775Z,7.40
2023-04-05T06:40:03.869Z,7.10
2023-04-05T06:40:45.513Z,6.25
2023-04-05T06:41:29.850Z,7.85
2023-04-05T06:42:11.468Z,6.10
2023-04-05T06:42:59.599Z,6.10
2023-04-05T06:43:45.422Z,6.38
2023-04-05T06:44:27.032Z,6.82
2023-04-05T06:45:09.241Z,12.82
2023-04-05T06:45:51.083Z,16.30
2023-04-05T06:46:32.828Z,17.57
2023-04-05T06:47:14.687Z,18.55
2023-04-05T06:47:56.431Z,18.08
2023-04-05T06:48:39.763Z,20.83
2023-04-05T06:49:21.635Z,17.98
2023-04-05T06:50:08.375Z,16.63
2023-04-05T06:51:00.337Z,14.60
2023-04-05T06:51:41.939Z,15.23
2023-04-05T06:52:23.609Z,13.48
2023-04-05T06:53:05.302Z,13.52
2023-04-05T06:53:46.971Z,12.88
2023-04-05T06:54:28.604Z,12.95
2023-04-05T06:55:10.462Z,12.68
2023-04-05T06:55:52.103Z,11.57
2023-04-05T06:56:33.840Z,11.23
2023-04-05T06:57:15.664Z,11.90
2023-04-05T06:57:57.290Z,10.75
2023-04-05T06:58:38.846Z,9.80
2023-04-05T06:59:20.739Z,10.18
2023-04-05T07:00:03.330Z,9.02
2023-04-05T07:00:47.002Z,8.35
2023-04-05T07:01:29.300Z,7.80
2023-04-05T07:02:10.993Z,7.22
2023-04-05T07:02:52.640Z,7.60
2023-04-05T07:03:34.419Z,7.82
2023-04-05T07:04:16.269Z,8.52
2023-04-05T07:05:04.532Z,8.60
2023-04-05T07:05:53.357Z,8.65
2023-04-05T07:06:38.945Z,10.15
2023-04-05T07:07:20.714Z,9.82
2023-04-05T07:08:02.454Z,10.05
2023-04-05T07:08:44.103Z,9.88
2023-04-05T07:09:26.701Z,11.43
2023-04-05T07:10:09.522Z,10.05
2023-04-05T07:10:51.665Z,11.38
2023-04-05T07:11:33.247Z,11.85
2023-04-05T07:12:17.819Z,11.15
2023-04-05T07:12:59.431Z,10.65
2023-04-05T07:13:41.388Z,10.75
2023-04-05T07:14:23.217Z,12.40
2023-04-05T07:15:05.606Z,14.02
2023-04-05T07:15:47.292Z,17.27
2023-04-05T07:16:29.068Z,20.02
2023-04-05T07:17:10.791Z,13.35
2023-04-05T07:17:52.615Z,6.78
2023-04-05T07:18:34.254Z,6.80
2023-04-05T07:19:16.236Z,4.78
2023-04-05T07:19:57.868Z,5.70
2023-04-05T07:20:39.819Z,7.22
2023-04-05T07:21:21.722Z,5.32
2023-04-05T07:22:03.353Z,7.10
2023-04-05T07:22:44.996Z,11.00
2023-04-05T07:23:29.530Z,13.10
2023-04-05T07:24:11.134Z,12.48
2023-04-05T07:24:53.328Z,9.85
2023-04-05T07:25:35.022Z,9.27
2023-04-05T07:26:16.750Z,9.57
2023-04-05T07:26:58.616Z,9.65
2023-04-05T07:27:40.199Z,9.50
2023-04-05T07:28:21.948Z,8.27
2023-04-05T07:29:04.774Z,4.03
2023-04-05T07:29:48.336Z,4.10
2023-04-05T07:30:32.036Z,3.60
2023-04-05T07:31:14.872Z,5.28
2023-04-05T07:31:56.832Z,3.15
2023-04-05T07:32:38.654Z,4.57
2023-04-05T07:33:20.977Z,3.65
2023-04-05T07:34:02.782Z,4.43
2023-04-05T07:34:44.425Z,3.90
2023-04-05T07:35:26.152Z,3.50
2023-04-05T07:36:08.710Z,3.45
2023-04-05T07:36:50.657Z,4.05
2023-04-05T07:37:32.308Z,4.68
2023-04-05T07:38:13.934Z,3.40
2023-04-05T07:38:55.715Z,4.07
2023-04-05T07:39:37.740Z,5.40
2023-04-05T07:40:19.434Z,4.70
2023-04-05T07:41:01.682Z,3.65
2023-04-05T07:41:43.508Z,3.05
2023-04-05T07:42:25.894Z,3.47
2023-04-05T07:43:07.530Z,3.50
2023-04-05T07:43:49.775Z,3.22
2023-04-05T07:44:31.478Z,3.63
2023-04-05T07:45:13.185Z,3.60
2023-04-05T07:46:02.070Z,2.97
2023-04-05T07:46:49.103Z,3.08
2023-04-05T07:47:34.450Z,2.95
2023-04-05T07:48:16.252Z,3.65
2023-04-05T07:48:58.353Z,4.50
2023-04-05T07:49:40.004Z,5.32
2023-04-05T07:50:21.624Z,4.32
2023-04-05T07:51:07.489Z,4.70
2023-04-05T07:51:49.415Z,3.88
2023-04-05T07:52:31.158Z,3.28
2023-04-05T07:53:13.024Z,3.85
2023-04-05T07:53:54.741Z,3.30
2023-04-05T07:54:39.559Z,3.08
2023-04-05T07:55:21.507Z,3.40
2023-04-05T07:56:05.377Z,5.30
2023-04-05T07:56:47.094Z,8.35
2023-04-05T07:57:29.166Z,4.63
2023-04-05T07:58:11.003Z,3.53
2023-04-05T07:58:54.803Z,3.30
2023-04-05T07:59:36.984Z,3.58
2023-04-05T08:00:19.090Z,5.45
2023-04-05T08:01:04.934Z,4.85
2023-04-05T08:01:46.674Z,4.10
2023-04-05T08:02:28.397Z,4.28
2023-04-05T08:03:10.788Z,2.80
2023-04-05T08:03:52.489Z,3.92
2023-04-05T08:04:34.272Z,3.25
2023-04-05T08:05:16.082Z,3.13
2023-04-05T08:05:58.338Z,4.25
2023-04-05T08:06:40.462Z,2.83
2023-04-05T08:07:23.281Z,3.83
2023-04-05T08:08:05.030Z,3.10
2023-04-05T08:08:47.161Z,3.72
2023-04-05T08:09:28.851Z,5.85
2023-04-05T08:10:11.002Z,3.60
2023-04-05T08:10:52.821Z,3.08
2023-04-05T08:11:35.585Z,3.40
2023-04-05T08:12:17.433Z,3.58
2023-04-05T08:12:59.173Z,4.72
2023-04-05T08:13:41.874Z,3.05
2023-04-05T08:14:23.632Z,3.42
2023-04-05T08:15:05.821Z,3.28
2023-04-05T08:15:47.518Z,2.95
2023-04-05T08:16:29.280Z,4.43
2023-04-05T08:17:11.108Z,3.47
2023-04-05T08:17:52.926Z,3.20
2023-04-05T08:18:34.732Z,3.30
2023-04-05T08:19:16.772Z,3.30
2023-04-05T08:19:58.373Z,4.03
2023-04-05T08:20:40.695Z,3.65
2023-04-05T08:21:23.397Z,2.97
2023-04-05T08:22:05.098Z,3.78
2023-04-05T08:22:46.750Z,3.30
2023-04-05T08:23:28.464Z,3.08
2023-04-05T08:24:10.189Z,3.25
2023-04-05T08:24:52.057Z,3.10
2023-04-05T08:25:33.958Z,3.20
2023-04-05T08:26:16.421Z,2.75
2023-04-05T08:26:58.102Z,3.10
2023-04-05T08:27:39.805Z,3.25
2023-04-05T08:28:21.653Z,3.88
2023-04-05T08:29:03.317Z,3.30
2023-04-05T08:29:44.968Z,3.10
2023-04-05T08:30:27.003Z,3.33
2023-04-05T08:31:08.722Z,3.03
2023-04-05T08:31:50.517Z,3.10
2023-04-05T08:32:33.029Z,3.00
2023-04-05T08:33:14.802Z,2.85
2023-04-05T08:33:56.451Z,3.95
2023-04-05T08:34:38.150Z,3.22
2023-04-05T08:35:19.795Z,3.63
2023-04-05T08:36:08.816Z,3.33
2023-04-05T08:36:50.527Z,3.50
2023-04-05T08:37:35.574Z,4.07
2023-04-05T08:38:17.324Z,3.22
2023-04-05T08:38:58.935Z,3.25
2023-04-05T08:39:40.592Z,3.25
2023-04-05T08:40:29.128Z,3.10
2023-04-05T08:41:26.131Z,2.92
2023-04-05T08:42:15.767Z,3.08
2023-04-05T08:43:27.073Z,3.20
2023-04-05T08:44:10.393Z,2.85
2023-04-05T08:44:53.063Z,2.50
2023-04-05T08:45:37.375Z,3.00
2023-04-05T08:46:21.008Z,2.72
2023-04-05T08:47:02.992Z,3.42
2023-04-05T08:47:46.527Z,4.38
2023-04-05T08:48:32.430Z,3.22
2023-04-05T08:49:14.187Z,4.28
2023-04-05T08:49:56.261Z,3.80
2023-04-05T08:50:38.000Z,3.08
2023-04-05T08:51:24.126Z,3.67
2023-04-05T08:52:06.129Z,3.17
2023-04-05T08:52:49.921Z,2.90
2023-04-05T08:53:33.345Z,4.07
2023-04-05T08:54:15.330Z,3.58
2023-04-05T08:54:57.099Z,4.40
2023-04-05T08:55:39.499Z,3.60
2023-04-05T08:56:25.922Z,3.95
2023-04-05T08:57:08.514Z,3.40
2023-04-05T08:57:55.490Z,3.72
2023-04-05T08:58:38.588Z,2.72
2023-04-05T08:59:21.004Z,2.92
2023-04-05T09:00:03.423Z,5.72
2023-04-05T09:00:46.302Z,3.90
2023-04-05T09:01:30.544Z,3.15
2023-04-05T09:02:18.699Z,3.63
2023-04-05T09:03:02.966Z,4.05
2023-04-05T09:03:47.155Z,3.25
2023-04-05T09:04:31.925Z,3.10
2023-04-05T09:05:14.423Z,3.72
2023-04-05T09:05:59.254Z,3.40
2023-04-05T09:06:41.170Z,3.38
2023-04-05T09:07:23.648Z,3.08
2023-04-05T09:08:05.878Z,3.00
2023-04-05T09:08:48.322Z,3.10
2023-04-05T09:09:33.034Z,3.58
2023-04-05T09:10:14.728Z,3.58
2023-04-05T09:10:56.353Z,3.65
2023-04-05T09:11:39.590Z,4.30
2023-04-05T09:12:22.774Z,3.60
2023-04-05T09:13:05.243Z,3.45
2023-04-05T09:13:46.864Z,3.33
2023-04-05T09:14:31.324Z,3.30
2023-04-05T09:15:15.025Z,3.50
2023-04-05T09:15:57.366Z,4.32
2023-04-05T09:16:41.341Z,3.95
2023-04-05T09:17:23.800Z,3.70
2023-04-05T09:18:15.506Z,3.58
2023-04-05T09:19:05.701Z,3.38
2023-04-05T09:19:50.226Z,3.22
2023-04-05T09:20:31.960Z,4.72
2023-04-05T09:21:13.656Z,3.25
2023-04-05T09:22:02.140Z,3.22
2023-04-05T09:22:47.612Z,5.00
2023-04-05T09:23:29.190Z,3.22
2023-04-05T09:24:10.812Z,3.60
2023-04-05T09:24:52.480Z,4.45
2023-04-05T09:25:39.460Z,4.30
2023-04-05T09:26:25.659Z,3.80
2023-04-05T09:27:13.313Z,3.30
2023-04-05T09:27:56.495Z,3.60
2023-04-05T09:28:42.977Z,3.58
2023-04-05T09:29:31.161Z,4.03
2023-04-05T09:30:22.684Z,3.40
2023-04-05T09:31:04.388Z,3.55
2023-04-05T09:31:46.193Z,3.50
2023-04-05T09:32:29.368Z,3.88
2023-04-05T09:33:18.778Z,3.70
2023-04-05T09:34:05.422Z,3.92
2023-04-05T09:34:47.955Z,3.47
2023-04-05T09:35:37.238Z,4.15
2023-04-05T09:36:19.193Z,4.38
2023-04-05T09:37:01.214Z,5.85
2023-04-05T09:37:53.288Z,3.55
2023-04-05T09:38:45.504Z,3.88
2023-04-05T09:39:32.359Z,3.88
2023-04-05T09:40:14.593Z,3.72
2023-04-05T09:40:56.230Z,4.40
2023-04-05T09:41:43.364Z,4.30
2023-04-05T09:42:26.093Z,3.40
2023-04-05T09:43:07.690Z,3.60
2023-04-05T09:43:49.352Z,4.30
2023-04-05T09:45:04.730Z,4.00
2023-04-05T09:45:52.072Z,4.40
2023-04-05T09:46:38.018Z,4.72
2023-04-05T09:47:31.132Z,3.92
2023-04-05T09:48:15.101Z,3.25
2023-04-05T09:48:57.439Z,4.95
2023-04-05T09:49:39.972Z,4.20
2023-04-05T09:50:21.600Z,4.70
2023-04-05T09:51:12.541Z,4.20
2023-04-05T09:51:54.915Z,3.65
2023-04-05T09:52:36.672Z,5.95
2023-04-05T09:53:19.296Z,3.95
2023-04-05T09:54:08.310Z,5.13
2023-04-05T09:54:52.427Z,3.90
2023-04-05T09:55:34.241Z,4.28
2023-04-05T09:56:15.881Z,3.47
2023-04-05T09:56:58.238Z,4.55
2023-04-05T09:57:43.621Z,4.72
2023-04-05T09:58:32.519Z,3.80
2023-04-05T09:59:14.203Z,3.90
2023-04-05T09:59:56.238Z,4.35
2023-04-05T10:00:38.158Z,3.65
2023-04-05T10:01:22.144Z,3.80
2023-04-05T10:02:04.496Z,4.45
2023-04-05T10:02:51.985Z,4.75
2023-04-05T10:03:46.572Z,5.68
2023-04-05T10:04:45.620Z,5.30
2023-04-05T10:05:28.734Z,4.50
2023-04-05T10:06:10.611Z,4.18
2023-04-05T10:06:52.578Z,4.50
2023-04-05T10:07:34.663Z,3.78
2023-04-05T10:08:16.966Z,7.15
2023-04-05T10:08:58.679Z,4.35
2023-04-05T10:09:41.641Z,5.43
2023-04-05T10:10:24.160Z,5.75
2023-04-05T10:11:06.336Z,6.47
2023-04-05T10:11:47.955Z,4.85
2023-04-05T10:12:32.206Z,4.03
2023-04-05T10:13:15.084Z,4.05
2023-04-05T10:14:00.843Z,4.88
2023-04-05T10:14:42.565Z,4.57
2023-04-05T10:15:26.386Z,4.43
2023-04-05T10:16:13.247Z,5.38
2023-04-05T10:17:13.428Z,4.40
2023-04-05T10:18:08.111Z,4.05
2023-04-05T10:18:51.892Z,4.55
2023-04-05T10:19:55.679Z,3.90
2023-04-05T10:20:41.244Z,4.30
2023-04-05T10:21:27.427Z,5.28
2023-04-05T10:22:15.180Z,5.50
2023-04-05T10:23:12.277Z,5.15